createdAt,value
2023-04-14T00:00:12.788Z,112.20
2023-04-14T00:01:12.848Z,117.17
2023-04-14T00:02:12.926Z,114.25
2023-04-14T00:03:13.193Z,118.47
2023-04-14T00:04:13.185Z,117.51
2023-04-14T00:05:13.020Z,117.88
2023-04-14T00:06:13.052Z,114.12
2023-04-14T00:07:13.087Z,110.46
2023-04-14T00:08:13.132Z,109.95
2023-04-14T00:09:13.173Z,111.77
2023-04-14T00:10:13.230Z,108.43
2023-04-14T00:11:13.265Z,108.34
2023-04-14T00:12:13.304Z,106.48
2023-04-14T00:13:13.344Z,111.57
2023-04-14T00:14:13.410Z,114.29
2023-04-14T00:15:13.425Z,111.53
2023-04-14T00:16:13.469Z,112.90
2023-04-14T00:17:13.608Z,110.12
2023-04-14T00:18:13.550Z,113.37
2023-04-14T00:19:13.589Z,109.99
2023-04-14T00:20:13.637Z,105.78
2023-04-14T00:21:13.669Z,110.94
2023-04-14T00:22:13.714Z,112.18
2023-04-14T00:23:13.764Z,113.74
2023-04-14T00:24:13.809Z,114.97
2023-04-14T00:25:13.851Z,116.70
2023-04-14T00:26:13.910Z,111.05
2023-04-14T00:27:13.932Z,109.06
2023-04-14T00:28:13.953Z,111.92
2023-04-14T00:29:14.011Z,112.99
2023-04-14T00:30:14.060Z,110.63
2023-04-14T00:31:14.113Z,102.68
2023-04-14T00:32:14.143Z,103.80
2023-04-14T00:33:14.176Z,106.64
2023-04-14T00:34:14.252Z,103.79
2023-04-14T00:35:14.272Z,106.64
2023-04-14T00:36:14.293Z,110.28
2023-04-14T00:37:14.437Z,101.42
2023-04-14T00:38:14.382Z,96.13
2023-04-14T00:39:14.433Z,101.44
2023-04-14T00:40:14.479Z,102.25
2023-04-14T00:41:14.502Z,98.99
2023-04-14T00:42:14.550Z,90.36
2023-04-14T00:43:14.598Z,99.17
2023-04-14T00:44:14.623Z,99.28
2023-04-14T00:45:14.720Z,98.40
2023-04-14T00:46:14.758Z,102.78
2023-04-14T00:47:14.832Z,103.99
2023-04-14T00:48:14.828Z,93.57
2023-04-14T00:49:14.887Z,96.02
2023-04-14T00:50:14.918Z,93.95
2023-04-14T00:51:14.959Z,98.27
2023-04-14T00:52:15.022Z,92.61
2023-04-14T00:53:15.074Z,89.65
2023-04-14T00:54:15.093Z,96.82
2023-04-14T00:55:15.237Z,98.19
2023-04-14T00:56:15.182Z,94.06
2023-04-14T00:57:15.240Z,91.10
2023-04-14T00:58:15.291Z,96.19
2023-04-14T00:59:15.316Z,99.31
2023-04-14T01:00:15.392Z,98.94
2023-04-14T01:01:15.495Z,101.11
2023-04-14T01:02:15.560Z,94.15
2023-04-14T01:03:15.658Z,97.36
2023-04-14T01:04:15.584Z,99.26
2023-04-14T01:05:15.782Z,100.44
2023-04-14T01:06:15.642Z,96.13
2023-04-14T01:07:15.687Z,86.71
2023-04-14T01:08:15.720Z,88.61
2023-04-14T01:09:15.784Z,94.39
2023-04-14T01:10:15.842Z,96.28
2023-04-14T01:11:15.864Z,92.45
2023-04-14T01:12:15.915Z,92.34
2023-04-14T01:13:15.964Z,97.03
2023-04-14T01:14:16.006Z,97.35
2023-04-14T01:15:16.084Z,91.70
2023-04-14T01:17:16.172Z,92.68
2023-04-14T01:18:16.224Z,86.17
2023-04-14T01:19:16.277Z,94.99
2023-04-14T01:20:16.323Z,96.57
2023-04-14T01:21:16.351Z,100.09
2023-04-14T01:22:16.392Z,93.29
2023-04-14T01:23:16.443Z,90.10
2023-04-14T01:24:16.477Z,95.14
2023-04-14T01:25:16.532Z,87.86
2023-04-14T01:26:16.613Z,88.75
2023-04-14T01:27:16.644Z,92.35
2023-04-14T01:28:16.689Z,96.59
2023-04-14T01:29:16.730Z,101.53
2023-04-14T01:30:16.786Z,99.48
2023-04-14T01:31:16.867Z,93.98
2023-04-14T01:32:16.898Z,95.12
2023-04-14T01:33:16.907Z,95.07
2023-04-14T01:34:17.004Z,98.71
2023-04-14T01:35:17.079Z,97.82
2023-04-14T01:36:17.070Z,101.07
2023-04-14T01:37:17.115Z,95.75
2023-04-14T01:38:17.169Z,92.87
2023-04-14T01:39:17.204Z,95.12
2023-04-14T01:40:17.252Z,101.25
2023-04-14T01:41:17.324Z,98.82
2023-04-14T01:42:17.359Z,98.93
2023-04-14T01:43:17.380Z,98.36
2023-04-14T01:44:17.436Z,102.36
2023-04-14T01:45:17.476Z,105.15
2023-04-14T01:46:17.651Z,98.69
2023-04-14T01:47:17.591Z,92.71
2023-04-14T01:48:17.645Z,90.77
2023-04-14T01:49:17.708Z,98.69
2023-04-14T01:50:17.755Z,100.18
2023-04-14T01:51:17.783Z,107.04
2023-04-14T01:52:17.838Z,104.52
2023-04-14T01:53:17.870Z,106.54
2023-04-14T01:54:17.937Z,103.08
2023-04-14T01:55:17.982Z,100.69
2023-04-14T01:56:18.067Z,96.56
2023-04-14T01:57:18.097Z,100.65
2023-04-14T01:58:18.147Z,100.27
2023-04-14T01:59:18.187Z,104.21
2023-04-14T02:00:18.240Z,101.03
2023-04-14T02:01:18.336Z,94.03
2023-04-14T02:02:18.510Z,95.56
2023-04-14T02:03:18.464Z,98.25
2023-04-14T02:04:18.534Z,95.07
2023-04-14T02:05:18.509Z,99.49
2023-04-14T02:06:18.573Z,103.60
2023-04-14T02:07:18.588Z,105.85
2023-04-14T02:08:18.684Z,96.10
2023-04-14T02:09:18.698Z,103.58
2023-04-14T02:10:18.738Z,103.36
2023-04-14T02:11:18.789Z,102.02
2023-04-14T02:12:18.853Z,98.66
2023-04-14T02:13:18.900Z,105.79
2023-04-14T02:14:18.954Z,99.76
2023-04-14T02:15:18.985Z,101.34
2023-04-14T02:16:19.088Z,105.60
2023-04-14T02:17:19.108Z,105.62
2023-04-14T02:18:19.125Z,108.11
2023-04-14T02:19:19.159Z,106.99
2023-04-14T02:20:19.208Z,104.58
2023-04-14T02:21:19.267Z,105.53
2023-04-14T02:22:19.324Z,109.86
2023-04-14T02:23:19.371Z,98.99
2023-04-14T02:24:19.410Z,100.88
2023-04-14T02:25:19.458Z,102.53
2023-04-14T02:26:19.519Z,104.59
2023-04-14T02:27:19.556Z,104.19
2023-04-14T02:28:19.617Z,103.92
2023-04-14T02:29:19.669Z,101.00
2023-04-14T02:30:19.715Z,99.70
2023-04-14T02:31:19.878Z,102.61
2023-04-14T02:32:19.928Z,101.99
2023-04-14T02:33:19.865Z,104.61
2023-04-14T02:34:19.929Z,107.08
2023-04-14T02:35:19.966Z,101.67
2023-04-14T02:36:20.040Z,104.70
2023-04-14T02:37:20.080Z,99.19
2023-04-14T02:38:20.139Z,95.80
2023-04-14T02:39:20.172Z,91.90
2023-04-14T02:40:20.252Z,101.30
2023-04-14T02:41:20.287Z,98.89
2023-04-14T02:42:20.324Z,102.62
2023-04-14T02:43:20.383Z,103.16
2023-04-14T02:44:20.444Z,103.99
2023-04-14T02:45:20.490Z,95.59
2023-04-14T02:46:20.577Z,101.70
2023-04-14T02:47:20.604Z,101.79
2023-04-14T02:48:20.641Z,101.90
2023-04-14T02:49:20.680Z,103.56
2023-04-14T02:50:20.749Z,105.39
2023-04-14T02:51:20.795Z,107.26
2023-04-14T02:52:20.816Z,108.21
2023-04-14T02:53:20.856Z,103.58
2023-04-14T02:54:20.904Z,101.36
2023-04-14T02:55:20.978Z,108.43
2023-04-14T02:56:21.021Z,104.84
2023-04-14T02:57:21.080Z,100.57
2023-04-14T02:58:21.119Z,101.98
2023-04-14T02:59:21.178Z,104.07
2023-04-14T03:00:21.216Z,107.68
2023-04-14T03:01:21.287Z,106.22
2023-04-14T03:02:21.438Z,108.96
2023-04-14T03:03:21.432Z,107.48
2023-04-14T03:04:21.482Z,105.33
2023-04-14T03:05:21.482Z,104.58
2023-04-14T03:06:21.545Z,102.79
2023-04-14T03:07:21.583Z,106.45
2023-04-14T03:08:21.639Z,107.98
2023-04-14T03:09:21.692Z,108.31
2023-04-14T03:10:21.746Z,109.39
2023-04-14T03:11:21.785Z,108.47
2023-04-14T03:12:21.820Z,108.57
2023-04-14T03:13:21.885Z,113.87
2023-04-14T03:14:21.924Z,108.81
2023-04-14T03:15:21.982Z,109.77
2023-04-14T03:16:22.058Z,110.44
2023-04-14T03:17:22.119Z,110.53
2023-04-14T03:18:22.168Z,111.74
2023-04-14T03:19:22.188Z,111.04
2023-04-14T03:20:22.262Z,113.66
2023-04-14T03:21:22.282Z,110.20
2023-04-14T03:22:22.341Z,110.58
2023-04-14T03:23:22.395Z,107.68
2023-04-14T03:24:22.450Z,102.88
2023-04-14T03:25:22.494Z,104.69
2023-04-14T03:26:22.552Z,109.94
2023-04-14T03:27:22.588Z,108.98
2023-04-14T03:28:22.653Z,106.06
2023-04-14T03:29:22.695Z,106.75
2023-04-14T03:30:22.751Z,103.69
2023-04-14T03:31:22.853Z,105.39
2023-04-14T03:32:22.860Z,100.78
2023-04-14T03:33:22.905Z,99.79
2023-04-14T03:34:22.934Z,107.01
2023-04-14T03:35:22.997Z,104.43
2023-04-14T03:36:23.054Z,108.87
2023-04-14T03:37:23.101Z,109.81
2023-04-14T03:38:23.149Z,110.94
2023-04-14T03:39:23.219Z,109.18
2023-04-14T03:40:23.274Z,107.07
2023-04-14T03:41:23.322Z,107.48
2023-04-14T03:42:23.365Z,111.06
2023-04-14T03:43:23.425Z,109.38
2023-04-14T03:44:23.455Z,109.08
2023-04-14T03:45:23.530Z,107.48
2023-04-14T03:46:23.658Z,101.77
2023-04-14T03:47:23.692Z,106.37
2023-04-14T03:48:23.672Z,95.92
2023-04-14T03:49:23.741Z,96.63
2023-04-14T03:50:23.806Z,94.82
2023-04-14T03:51:23.853Z,102.20
2023-04-14T03:52:23.882Z,103.94
2023-04-14T03:53:23.967Z,99.82
2023-04-14T03:54:23.993Z,94.55
2023-04-14T03:55:24.057Z,101.26
2023-04-14T03:56:24.089Z,100.27
2023-04-14T03:57:24.156Z,97.29
2023-04-14T03:58:24.207Z,91.43
2023-04-14T03:59:24.258Z,91.82
2023-04-14T04:00:24.300Z,100.79
2023-04-14T04:01:24.372Z,99.48
2023-04-14T04:02:24.664Z,101.98
2023-04-14T04:03:24.769Z,99.86
2023-04-14T04:04:24.636Z,99.43
2023-04-14T04:05:24.577Z,97.32
2023-04-14T04:06:24.638Z,103.85
2023-04-14T04:07:24.705Z,98.89
2023-04-14T04:08:24.750Z,98.33
2023-04-14T04:09:24.844Z,97.27
2023-04-14T04:10:24.838Z,102.81
2023-04-14T04:11:24.893Z,102.83
2023-04-14T04:12:24.980Z,106.26
2023-04-14T04:13:25.031Z,105.55
2023-04-14T04:14:25.053Z,109.00
2023-04-14T04:15:25.124Z,103.33
2023-04-14T04:16:25.186Z,102.25
2023-04-14T04:17:25.278Z,106.70
2023-04-14T04:18:25.279Z,109.12
2023-04-14T04:19:25.353Z,106.68
2023-04-14T04:20:25.389Z,108.33
2023-04-14T04:21:25.437Z,106.30
2023-04-14T04:22:25.506Z,111.54
2023-04-14T04:23:25.559Z,112.19
2023-04-14T04:24:25.614Z,111.09
2023-04-14T04:25:25.656Z,110.77
2023-04-14T04:26:25.709Z,115.47
2023-04-14T04:27:28.240Z,113.01
2023-04-14T04:28:25.764Z,110.98
2023-04-14T04:29:25.745Z,115.32
2023-04-14T04:30:25.718Z,116.65
2023-04-14T04:31:25.751Z,119.04
2023-04-14T04:32:25.792Z,111.89
2023-04-14T04:33:25.703Z,113.03
2023-04-14T04:34:25.713Z,112.26
2023-04-14T04:35:25.698Z,109.46
2023-04-14T04:36:25.707Z,110.02
2023-04-14T04:37:25.683Z,116.72
2023-04-14T04:38:25.672Z,117.41
2023-04-14T04:39:25.656Z,115.81
2023-04-14T04:40:25.716Z,115.75
2023-04-14T04:41:25.659Z,113.10
2023-04-14T04:42:25.651Z,109.50
2023-04-14T04:43:25.646Z,114.82
2023-04-14T04:44:25.638Z,119.14
2023-04-14T04:45:25.627Z,112.97
2023-04-14T04:46:25.662Z,117.78
2023-04-14T04:47:25.666Z,116.51
2023-04-14T04:48:25.601Z,118.91
2023-04-14T04:49:25.610Z,111.05
2023-04-14T04:50:25.593Z,112.34
2023-04-14T04:51:25.569Z,115.77
2023-04-14T04:52:25.595Z,110.65
2023-04-14T04:53:25.588Z,110.09
2023-04-14T04:54:25.562Z,114.18
2023-04-14T04:55:25.571Z,117.78
2023-04-14T04:56:25.537Z,119.16
2023-04-14T04:57:25.562Z,119.77
2023-04-14T04:58:25.553Z,118.65
2023-04-14T04:59:25.539Z,118.51
2023-04-14T05:00:25.549Z,122.58
2023-04-14T05:01:25.563Z,121.05
2023-04-14T05:02:25.643Z,120.17
2023-04-14T05:03:25.557Z,122.92
2023-04-14T05:04:25.508Z,117.62
2023-04-14T05:05:25.533Z,123.65
2023-04-14T05:06:25.468Z,123.43
2023-04-14T05:07:25.474Z,121.62
2023-04-14T05:08:25.472Z,115.04
2023-04-14T05:09:25.451Z,118.13
2023-04-14T05:10:25.555Z,123.59
2023-04-14T05:11:25.597Z,124.75
2023-04-14T05:12:25.604Z,125.43
2023-04-14T05:13:25.656Z,123.84
2023-04-14T05:14:27.432Z,125.69
2023-04-14T05:15:25.790Z,125.93
2023-04-14T05:16:25.948Z,126.73
2023-04-14T05:17:25.925Z,132.06
2023-04-14T05:18:25.926Z,128.45
2023-04-14T05:19:25.974Z,126.66
2023-04-14T05:20:26.042Z,129.04
2023-04-14T05:21:26.073Z,130.36
2023-04-14T05:22:26.131Z,131.80
2023-04-14T05:23:26.201Z,130.79
2023-04-14T05:24:26.251Z,137.26
2023-04-14T05:25:26.291Z,133.29
2023-04-14T05:26:51.213Z,130.92
2023-04-14T05:27:27.439Z,131.04
2023-04-14T05:28:26.676Z,131.58
2023-04-14T05:29:26.351Z,132.91
2023-04-14T05:30:26.326Z,133.62
2023-04-14T05:31:26.345Z,123.56
2023-04-14T05:32:28.862Z,131.27
2023-04-14T05:33:26.702Z,143.43
2023-04-14T05:34:26.302Z,144.12
2023-04-14T05:35:26.277Z,143.42
2023-04-14T05:36:26.300Z,164.34
2023-04-14T05:37:26.264Z,175.91
2023-04-14T05:38:26.267Z,174.37
2023-04-14T05:39:26.276Z,176.11
2023-04-14T05:40:26.304Z,181.95
2023-04-14T05:41:26.252Z,187.05
2023-04-14T05:42:26.236Z,202.35
2023-04-14T05:43:26.240Z,198.15
2023-04-14T05:44:26.273Z,211.06
2023-04-14T05:45:26.251Z,223.02
2023-04-14T05:46:26.297Z,231.11
2023-04-14T05:47:26.253Z,250.50
2023-04-14T05:48:26.214Z,252.18
2023-04-14T05:49:26.291Z,255.87
2023-04-14T05:50:26.214Z,254.22
2023-04-14T05:51:26.200Z,247.25
2023-04-14T05:52:26.194Z,278.53
2023-04-14T05:53:26.178Z,272.83
2023-04-14T05:54:26.177Z,237.32
2023-04-14T05:55:26.177Z,223.61
2023-04-14T05:56:26.171Z,219.69
2023-04-14T05:57:26.170Z,221.39
2023-04-14T05:58:26.174Z,208.20
2023-04-14T05:59:26.143Z,213.39
2023-04-14T06:00:26.123Z,206.88
2023-04-14T06:01:26.157Z,205.45
2023-04-14T06:02:26.236Z,196.06
2023-04-14T06:03:26.382Z,197.61
2023-04-14T06:04:26.125Z,207.58
2023-04-14T06:05:26.169Z,207.57
2023-04-14T06:06:26.096Z,208.79
2023-04-14T06:07:26.098Z,211.90
2023-04-14T06:08:26.095Z,206.76
2023-04-14T06:09:26.071Z,209.17
2023-04-14T06:10:26.077Z,210.64
2023-04-14T06:11:26.063Z,204.91
2023-04-14T06:12:26.056Z,201.62
2023-04-14T06:13:26.082Z,210.56
2023-04-14T06:14:26.091Z,211.46
2023-04-14T06:15:26.039Z,218.40
2023-04-14T06:16:26.065Z,223.53
2023-04-14T06:17:26.061Z,226.15
2023-04-14T06:18:26.208Z,227.48
2023-04-14T06:19:26.007Z,221.25
2023-04-14T06:20:25.998Z,217.76
2023-04-14T06:21:26.013Z,218.63
2023-04-14T06:22:25.974Z,221.78
2023-04-14T06:23:25.982Z,226.59
2023-04-14T06:24:25.987Z,221.36
2023-04-14T06:25:25.996Z,221.93
2023-04-14T06:26:25.948Z,223.13
2023-04-14T06:27:25.960Z,221.96
2023-04-14T06:28:25.924Z,221.29
2023-04-14T06:29:25.915Z,223.93
2023-04-14T06:30:25.924Z,227.88
2023-04-14T06:31:25.934Z,225.11
2023-04-14T06:32:26.004Z,223.56
2023-04-14T06:33:25.921Z,143.04
2023-04-14T06:34:25.888Z,105.55
2023-04-14T06:35:32.272Z,103.22
2023-04-14T06:36:26.878Z,137.24
2023-04-14T06:37:25.892Z,144.65
2023-04-14T06:38:25.877Z,150.62
2023-04-14T06:39:25.859Z,162.45
2023-04-14T06:40:25.873Z,183.09
2023-04-14T06:41:25.858Z,183.63
2023-04-14T06:42:25.859Z,185.08
2023-04-14T06:43:25.822Z,188.02
2023-04-14T06:44:25.870Z,192.03
2023-04-14T06:45:25.937Z,195.15
2023-04-14T06:46:26.093Z,195.00
2023-04-14T06:47:25.993Z,196.87
2023-04-14T06:48:25.974Z,198.63
2023-04-14T06:49:26.194Z,201.74
2023-04-14T06:50:25.983Z,200.50
2023-04-14T06:51:25.990Z,205.16
2023-04-14T06:52:26.011Z,210.04
2023-04-14T06:53:26.045Z,213.09
2023-04-14T06:54:25.991Z,214.43
2023-04-14T06:55:25.987Z,208.72
2023-04-14T06:56:26.039Z,206.22
2023-04-14T06:57:26.009Z,206.87
2023-04-14T06:58:26.059Z,202.56
2023-04-14T06:59:26.062Z,201.35
2023-04-14T07:00:26.050Z,206.96
2023-04-14T07:01:26.114Z,210.92
2023-04-14T07:02:26.179Z,215.63
2023-04-14T07:03:26.159Z,213.91
2023-04-14T07:04:26.247Z,213.90
2023-04-14T07:05:26.224Z,210.00
2023-04-14T07:06:26.203Z,207.36
2023-04-14T07:07:28.274Z,207.69
2023-04-14T07:08:26.232Z,209.58
2023-04-14T07:09:26.311Z,207.99
2023-04-14T07:10:26.235Z,202.20
2023-04-14T07:11:26.328Z,201.67
2023-04-14T07:12:26.323Z,183.19
2023-04-14T07:13:26.348Z,169.75
2023-04-14T07:14:26.710Z,170.97
2023-04-14T07:15:26.342Z,161.19
2023-04-14T07:16:26.439Z,156.30
2023-04-14T07:17:26.430Z,154.05
2023-04-14T07:18:26.339Z,151.93
2023-04-14T07:19:26.720Z,143.39
2023-04-14T07:20:26.420Z,141.22
2023-04-14T07:21:26.376Z,138.42
2023-04-14T07:22:26.440Z,135.35
2023-04-14T07:23:26.388Z,129.34
2023-04-14T07:24:26.721Z,130.74
2023-04-14T07:25:26.440Z,129.68
2023-04-14T07:26:26.482Z,130.86
2023-04-14T07:27:26.516Z,133.37
2023-04-14T07:28:26.504Z,137.52
2023-04-14T07:29:26.719Z,145.30
2023-04-14T07:30:26.606Z,181.95
2023-04-14T07:31:26.589Z,193.58
2023-04-14T07:32:26.600Z,190.15
2023-04-14T07:33:26.595Z,179.52
2023-04-14T07:34:26.600Z,178.05
2023-04-14T07:35:26.604Z,185.80
2023-04-14T07:36:26.596Z,188.68
2023-04-14T07:37:26.605Z,185.17
2023-04-14T07:38:26.588Z,186.11
2023-04-14T07:39:26.742Z,191.69
2023-04-14T07:40:26.696Z,193.68
2023-04-14T07:41:26.680Z,195.57
2023-04-14T07:42:26.697Z,194.44
2023-04-14T07:43:26.728Z,197.19
2023-04-14T07:44:26.850Z,199.33
2023-04-14T07:45:26.782Z,203.19
2023-04-14T07:46:26.894Z,201.68
2023-04-14T07:47:26.858Z,205.02
2023-04-14T07:48:26.850Z,207.83
2023-04-14T07:49:26.884Z,212.03
2023-04-14T07:50:27.032Z,216.34
2023-04-14T07:51:26.901Z,219.98
2023-04-14T07:52:26.912Z,219.32
2023-04-14T07:53:27.008Z,218.72
2023-04-14T07:54:27.027Z,212.86
2023-04-14T07:55:27.660Z,209.74
2023-04-14T07:56:27.230Z,212.15
2023-04-14T07:57:27.178Z,211.13
2023-04-14T07:58:29.252Z,210.04
2023-04-14T07:59:27.364Z,209.59
2023-04-14T08:00:27.419Z,211.47
2023-04-14T08:01:27.477Z,215.54
2023-04-14T08:02:27.770Z,217.73
2023-04-14T08:03:27.726Z,219.41
2023-04-14T08:04:27.678Z,223.19
2023-04-14T08:05:27.811Z,224.42
2023-04-14T08:06:27.812Z,221.11
2023-04-14T08:07:27.849Z,220.61
2023-04-14T08:08:27.933Z,216.54
2023-04-14T08:09:27.962Z,218.01
2023-04-14T08:10:28.027Z,221.15
2023-04-14T08:11:28.107Z,220.66
2023-04-14T08:12:28.134Z,222.77
2023-04-14T08:13:28.209Z,224.37
2023-04-14T08:14:28.244Z,228.94
2023-04-14T08:15:28.306Z,232.62
2023-04-14T08:16:28.412Z,225.46
2023-04-14T08:17:28.470Z,237.62
2023-04-14T08:18:28.473Z,243.44
2023-04-14T08:19:28.602Z,241.01
2023-04-14T08:20:28.596Z,238.28
2023-04-14T08:21:28.765Z,233.43
2023-04-14T08:22:28.698Z,225.40
2023-04-14T08:23:28.778Z,227.35
2023-04-14T08:24:28.833Z,227.29
2023-04-14T08:25:28.879Z,220.75
2023-04-14T08:26:28.971Z,232.55
2023-04-14T08:27:29.028Z,240.10
2023-04-14T08:28:29.079Z,239.30
2023-04-14T08:29:29.133Z,248.05
2023-04-14T08:30:29.169Z,250.00
2023-04-14T08:31:29.268Z,246.96
2023-04-14T08:32:29.295Z,244.51
2023-04-14T08:33:29.399Z,240.08
2023-04-14T08:34:29.404Z,233.64
2023-04-14T08:35:35.344Z,247.81
2023-04-14T08:36:30.458Z,248.15
2023-04-14T08:37:29.444Z,249.63
2023-04-14T08:38:29.564Z,252.60
2023-04-14T08:39:29.439Z,254.89
2023-04-14T08:40:29.435Z,261.24
2023-04-14T08:41:29.452Z,252.53
2023-04-14T08:42:29.443Z,249.92
2023-04-14T08:43:29.407Z,250.00
2023-04-14T08:44:29.404Z,248.86
2023-04-14T08:45:29.446Z,246.97
2023-04-14T08:46:29.498Z,244.07
2023-04-14T08:47:29.499Z,242.64
2023-04-14T08:48:29.503Z,243.07
2023-04-14T08:49:29.532Z,246.80
2023-04-14T08:50:29.838Z,247.67
2023-04-14T08:51:29.617Z,249.34
2023-04-14T08:52:29.653Z,247.97
2023-04-14T08:53:29.667Z,248.10
2023-04-14T08:54:29.699Z,246.67
2023-04-14T08:55:29.764Z,244.95
2023-04-14T08:56:30.280Z,243.98
2023-04-14T08:57:29.784Z,245.79
2023-04-14T08:58:29.839Z,244.43
2023-04-14T08:59:29.852Z,244.26
2023-04-14T09:00:29.884Z,254.10
2023-04-14T09:01:29.994Z,256.47
2023-04-14T09:02:30.053Z,240.92
2023-04-14T09:03:30.047Z,237.76
2023-04-14T09:04:30.007Z,236.10
2023-04-14T09:05:30.002Z,231.25
2023-04-14T09:06:30.011Z,227.13
2023-04-14T09:07:30.399Z,227.04
2023-04-14T09:08:30.068Z,227.56
2023-04-14T09:09:30.078Z,228.06
2023-04-14T09:10:30.280Z,232.21
2023-04-14T09:11:30.284Z,232.31
2023-04-14T09:12:30.199Z,226.44
2023-04-14T09:13:30.195Z,228.47
2023-04-14T09:14:30.207Z,224.77
2023-04-14T09:15:30.227Z,222.69
2023-04-14T09:16:30.823Z,226.40
2023-04-14T09:17:30.314Z,226.24
2023-04-14T09:18:30.343Z,224.88
2023-04-14T09:19:30.308Z,229.52
2023-04-14T09:20:38.813Z,233.28
2023-04-14T09:21:52.623Z,233.35
2023-04-14T09:22:31.324Z,233.40
2023-04-14T09:23:30.331Z,234.24
2023-04-14T09:24:32.597Z,238.35
2023-04-14T09:25:30.324Z,236.03
2023-04-14T09:26:30.331Z,229.81
2023-04-14T09:27:30.349Z,215.51
2023-04-14T09:28:30.404Z,206.87
2023-04-14T09:29:30.390Z,207.42
2023-04-14T09:30:30.786Z,208.48
2023-04-14T09:31:30.456Z,199.92
2023-04-14T09:32:30.807Z,198.47
2023-04-14T09:33:30.497Z,203.11
2023-04-14T09:34:30.571Z,209.55
2023-04-14T09:35:30.569Z,207.91
2023-04-14T09:36:30.563Z,206.99
2023-04-14T09:37:30.591Z,205.64
2023-04-14T09:38:30.629Z,205.66
2023-04-14T09:39:30.615Z,205.63
2023-04-14T09:40:30.776Z,205.00
2023-04-14T09:41:30.663Z,201.72
2023-04-14T09:42:30.678Z,198.42
2023-04-14T09:43:30.678Z,195.52
2023-04-14T09:44:30.704Z,195.04
2023-04-14T09:45:30.736Z,188.35
2023-04-14T09:46:30.751Z,189.10
2023-04-14T09:47:30.772Z,191.21
2023-04-14T09:48:30.840Z,187.75
2023-04-14T09:49:30.793Z,188.89
2023-04-14T09:50:30.823Z,192.47
2023-04-14T09:51:30.842Z,192.82
2023-04-14T09:52:31.322Z,198.30
2023-04-14T09:53:30.875Z,185.41
2023-04-14T09:54:30.876Z,178.43
2023-04-14T09:55:30.912Z,178.42
2023-04-14T09:56:30.938Z,169.17
2023-04-14T09:57:30.955Z,171.39
2023-04-14T09:58:31.169Z,180.24
2023-04-14T09:59:30.987Z,186.12
2023-04-14T10:00:31.270Z,188.80
2023-04-14T10:01:31.072Z,189.89
2023-04-14T10:02:31.169Z,183.88
2023-04-14T10:03:31.133Z,180.41
2023-04-14T10:04:31.146Z,176.07
2023-04-14T10:05:33.984Z,179.33
2023-04-14T10:06:31.097Z,178.78
2023-04-14T10:07:31.110Z,181.25
2023-04-14T10:08:31.101Z,181.63
2023-04-14T10:09:31.083Z,169.38
2023-04-14T10:10:31.116Z,168.34
2023-04-14T10:11:31.053Z,160.71
2023-04-14T10:12:31.081Z,166.26
2023-04-14T10:13:31.067Z,161.08
2023-04-14T10:14:31.053Z,159.18
2023-04-14T10:15:31.109Z,173.36
2023-04-14T10:16:31.051Z,173.44
2023-04-14T10:17:33.375Z,159.47
2023-04-14T10:18:31.026Z,159.57
2023-04-14T10:19:31.024Z,161.08
2023-04-14T10:20:31.338Z,161.08
2023-04-14T10:21:31.047Z,153.78
2023-04-14T10:22:31.383Z,158.20
2023-04-14T10:23:30.980Z,157.06
2023-04-14T10:24:31.030Z,152.43
2023-04-14T10:25:31.014Z,155.40
2023-04-14T10:26:31.002Z,101.93
2023-04-14T10:27:30.967Z,81.44
2023-04-14T10:28:33.015Z,65.04
2023-04-14T10:29:31.064Z,65.08
2023-04-14T10:30:30.966Z,65.91
2023-04-14T10:31:31.002Z,70.60
2023-04-14T10:32:31.037Z,86.41
2023-04-14T10:33:30.937Z,119.95
2023-04-14T10:34:31.789Z,121.91
2023-04-14T10:35:30.936Z,112.76
2023-04-14T10:36:30.910Z,100.70
2023-04-14T10:37:31.029Z,104.34
2023-04-14T10:38:30.881Z,92.39
2023-04-14T10:39:30.913Z,85.16
2023-04-14T10:40:30.886Z,75.50
2023-04-14T10:41:30.879Z,77.57
2023-04-14T10:42:30.870Z,77.63
2023-04-14T10:43:30.869Z,68.69
2023-04-14T10:44:30.851Z,62.11
2023-04-14T10:45:30.868Z,51.14
2023-04-14T10:46:30.918Z,49.11
2023-04-14T10:47:30.888Z,71.93
2023-04-14T10:48:30.836Z,77.19
2023-04-14T10:49:30.825Z,96.42
2023-04-14T10:50:30.813Z,89.45
2023-04-14T10:51:30.794Z,70.77
2023-04-14T10:52:30.795Z,90.24
2023-04-14T10:53:30.787Z,75.63
2023-04-14T10:54:30.784Z,53.35
2023-04-14T10:55:31.257Z,35.87
2023-04-14T10:56:30.764Z,24.69
2023-04-14T10:57:30.821Z,28.35
2023-04-14T10:58:30.753Z,48.81
2023-04-14T10:59:30.738Z,39.28
2023-04-14T11:00:30.744Z,27.78
2023-04-14T11:01:31.073Z,42.96
2023-04-14T11:02:31.459Z,39.29
2023-04-14T11:03:31.106Z,51.97
2023-04-14T11:04:31.120Z,53.70
2023-04-14T11:05:31.038Z,44.46
2023-04-14T11:06:31.104Z,42.94
2023-04-14T11:07:31.175Z,55.26
2023-04-14T11:08:31.239Z,59.06
2023-04-14T11:09:31.300Z,70.77
2023-04-14T11:10:31.357Z,55.81
2023-04-14T11:11:31.402Z,56.76
2023-04-14T11:12:31.826Z,44.83
2023-04-14T11:13:31.563Z,56.36
2023-04-14T11:14:31.609Z,46.72
2023-04-14T11:15:31.631Z,16.66
2023-04-14T11:16:31.808Z,11.89
2023-04-14T11:17:31.855Z,18.40
2023-04-14T11:18:31.761Z,28.02
2023-04-14T11:19:31.761Z,33.11
2023-04-14T11:20:31.734Z,37.70
2023-04-14T11:21:31.817Z,38.20
2023-04-14T11:22:31.872Z,48.90
2023-04-14T11:23:32.299Z,59.00
2023-04-14T11:24:32.363Z,63.71
2023-04-14T11:25:32.408Z,68.41
2023-04-14T11:26:31.813Z,76.31
2023-04-14T11:27:31.830Z,84.33
2023-04-14T11:28:31.831Z,95.52
2023-04-14T11:29:31.873Z,100.12
2023-04-14T11:30:31.853Z,96.20
2023-04-14T11:31:31.871Z,94.67
2023-04-14T11:32:34.804Z,91.39
2023-04-14T11:33:31.862Z,88.84
2023-04-14T11:34:31.832Z,92.56
2023-04-14T11:35:31.895Z,96.29
2023-04-14T11:36:31.817Z,99.06
2023-04-14T11:37:32.302Z,100.13
2023-04-14T11:38:38.380Z,102.82
2023-04-14T11:39:32.333Z,100.26
2023-04-14T11:40:31.874Z,100.60
2023-04-14T11:41:31.896Z,104.48
2023-04-14T11:42:31.764Z,109.88
2023-04-14T11:43:31.775Z,116.53
2023-04-14T11:44:31.814Z,116.80
2023-04-14T11:45:31.763Z,120.55
2023-04-14T11:46:31.925Z,122.74
2023-04-14T11:47:31.841Z,122.00
2023-04-14T11:48:31.747Z,128.91
2023-04-14T11:49:31.757Z,125.91
2023-04-14T11:50:32.425Z,128.08
2023-04-14T11:51:32.880Z,128.20
2023-04-14T11:52:32.039Z,129.54
2023-04-14T11:53:32.114Z,132.49
2023-04-14T11:54:33.374Z,136.37
2023-04-14T11:55:32.121Z,145.20
2023-04-14T11:56:32.185Z,145.94
2023-04-14T11:57:32.293Z,147.81
2023-04-14T11:58:32.292Z,144.77
2023-04-14T11:59:32.829Z,144.96
2023-04-14T12:00:32.842Z,145.70
2023-04-14T12:01:32.283Z,146.47
2023-04-14T12:02:35.136Z,148.59
2023-04-14T12:03:32.444Z,151.83
2023-04-14T12:04:32.520Z,145.12
2023-04-14T12:05:32.366Z,145.14
2023-04-14T12:06:32.839Z,146.06
2023-04-14T12:07:32.365Z,145.08
2023-04-14T12:08:34.416Z,145.80
2023-04-14T12:09:33.332Z,146.08
2023-04-14T12:10:33.338Z,146.57
2023-04-14T12:11:32.525Z,146.23
2023-04-14T12:12:33.336Z,144.52
2023-04-14T12:13:32.587Z,144.55
2023-04-14T12:14:32.582Z,134.43
2023-04-14T12:15:32.621Z,135.88
2023-04-14T12:16:32.739Z,135.45
2023-04-14T12:17:32.644Z,151.51
2023-04-14T12:18:32.557Z,161.49
2023-04-14T12:19:32.567Z,162.75
2023-04-14T12:20:32.526Z,138.72
2023-04-14T12:21:32.527Z,132.17
2023-04-14T12:22:32.557Z,158.63
2023-04-14T12:23:32.529Z,153.37
2023-04-14T12:24:32.518Z,155.41
2023-04-14T12:25:32.502Z,157.79
2023-04-14T12:26:32.588Z,158.54
2023-04-14T12:27:32.523Z,159.16
2023-04-14T12:28:32.479Z,158.30
2023-04-14T12:29:32.481Z,156.49
2023-04-14T12:30:32.486Z,160.05
2023-04-14T12:31:32.659Z,164.95
2023-04-14T12:32:32.500Z,162.11
2023-04-14T12:33:32.460Z,168.24
2023-04-14T12:34:32.465Z,171.02